Time;durP1;ratioP1;P1;durP2;ratioP2;P2;SDS_P1;SDS_P2;PMS_P1;PMS_P2;Temp;Humidity;BMP_temperature;BMP_pressure;BME280_temperature;BME280_humidity;BME280_pressure;Samples;Min_cycle;Max_cycle;Signal;HPM_P1;HPM_P2
2022/11/24 00:00:51;;;;;;;28.73;6.20;;;;;;;12.89;100.00;100107.38;4984268;28;20306;-57
2022/11/24 00:03:17;;;;;;;39.83;7.80;;;;;;;13.36;100.00;100099.66;4990838;28;20034;-57
2022/11/24 00:05:43;;;;;;;33.28;6.22;;;;;;;13.27;100.00;100113.44;4992624;28;20027;-56
2022/11/24 00:08:10;;;;;;;29.52;7.63;;;;;;;13.44;100.00;100123.53;4992638;28;20049;-57
2022/11/24 00:10:36;;;;;;;26.43;4.97;;;;;;;13.31;100.00;100124.53;4992160;28;20035;-58
2022/11/24 00:13:02;;;;;;;31.57;5.47;;;;;;;13.23;100.00;100119.47;4992349;28;20280;-58
2022/11/24 00:15:28;;;;;;;49.05;6.30;;;;;;;13.15;100.00;100126.81;4983180;28;20034;-56
2022/11/24 00:17:53;;;;;;;31.60;6.33;;;;;;;13.29;100.00;100126.63;4990552;28;20032;-56
2022/11/24 00:20:19;;;;;;;44.10;7.07;;;;;;;13.42;100.00;100136.34;4989587;28;20280;-56
2022/11/24 00:22:44;;;;;;;26.33;5.50;;;;;;;13.26;100.00;100125.22;4985008;28;20031;-58
2022/11/24 00:25:10;;;;;;;25.98;4.25;;;;;;;13.21;100.00;100138.53;4984464;28;20038;-57
2022/11/24 00:27:35;;;;;;;29.53;6.13;;;;;;;13.61;100.00;100139.78;4991841;28;20074;-58
2022/11/24 00:30:02;;;;;;;30.02;5.00;;;;;;;13.70;100.00;100132.97;4992311;28;20276;-55
2022/11/24 00:32:29;;;;;;;28.70;5.80;;;;;;;13.90;100.00;100129.13;4986699;28;20072;-56
2022/11/24 00:34:55;;;;;;;32.97;5.47;;;;;;;13.96;100.00;100127.38;4990503;28;20059;-58
2022/11/24 00:37:20;;;;;;;23.17;5.13;;;;;;;13.95;100.00;100123.84;4989281;28;20308;-56
2022/11/24 00:39:46;;;;;;;19.42;4.63;;;;;;;13.75;100.00;100126.91;4983273;28;20031;-58
2022/11/24 00:42:13;;;;;;;34.37;5.00;;;;;;;14.16;100.00;100118.91;4985365;28;20046;-58
2022/11/24 00:44:39;;;;;;;33.53;6.13;;;;;;;13.66;100.00;100118.38;4988223;28;20054;-57
2022/11/24 00:47:04;;;;;;;29.80;5.40;;;;;;;13.56;100.00;100112.78;4989528;28;20292;-58
2022/11/24 00:49:30;;;;;;;23.42;4.25;;;;;;;13.24;100.00;100113.88;5001983;28;20055;-56
2022/11/24 00:51:56;;;;;;;18.03;3.87;;;;;;;13.62;100.00;100110.00;4987838;28;20050;-58
2022/11/24 00:54:21;;;;;;;18.88;4.07;;;;;;;13.88;100.00;100120.50;4995454;28;20106;-56
2022/11/24 00:56:48;;;;;;;26.38;4.80;;;;;;;13.84;100.00;100127.38;4986349;28;20043;-55
2022/11/24 00:59:13;;;;;;;27.75;4.43;;;;;;;13.85;100.00;100123.66;4986454;28;20058;-58
2022/11/24 01:01:40;;;;;;;25.63;4.63;;;;;;;13.39;100.00;100121.50;4991028;28;20039;-58
2022/11/24 01:04:06;;;;;;;29.85;4.35;;;;;;;14.22;100.00;100141.38;4990991;28;20043;-54
2022/11/24 01:06:32;;;;;;;24.07;4.77;;;;;;;12.73;100.00;100133.00;4985965;28;20042;-58
2022/11/24 01:08:57;;;;;;;27.77;4.87;;;;;;;12.93;100.00;100139.97;4990760;28;20031;-58
2022/11/24 01:11:26;;;;;;;35.05;5.63;;;;;;;13.18;100.00;100136.31;4989340;28;20034;-55
2022/11/24 01:13:57;;;;;;;34.45;6.00;;;;;;;12.65;100.00;100154.75;4998010;28;20045;-57
2022/11/24 01:16:30;;;;;;;31.03;8.50;;;;;;;12.60;100.00;100151.94;4991088;28;20026;-57
2022/11/24 01:18:56;;;;;;;25.42;7.75;;;;;;;13.01;100.00;100158.41;4983737;28;20283;-57
2022/11/24 01:21:22;;;;;;;32.83;7.68;;;;;;;13.13;100.00;100149.56;4987051;28;20050;-53
2022/11/24 01:23:47;;;;;;;31.50;7.57;;;;;;;12.83;100.00;100163.81;4991432;28;20038;-56
2022/11/24 01:26:16;;;;;;;28.88;7.57;;;;;;;12.60;100.00;100168.03;5015168;28;20027;-54
2022/11/24 01:28:42;;;;;;;38.40;8.43;;;;;;;13.14;100.00;100167.31;4988765;28;20038;-57
2022/11/24 01:31:09;;;;;;;35.10;7.35;;;;;;;13.41;100.00;100157.00;4986744;28;20315;-57
2022/11/24 01:33:35;;;;;;;29.08;8.57;;;;;;;13.50;100.00;100164.78;4986754;28;20059;-55
2022/11/24 01:36:03;;;;;;;28.83;7.10;;;;;;;13.18;100.00;100165.84;4990426;28;20054;-57
2022/11/24 01:38:29;;;;;;;24.20;7.13;;;;;;;13.30;100.00;100158.59;4991340;28;20035;-56
2022/11/24 01:41:06;;;;;;;25.73;7.65;;;;;;;13.10;100.00;100158.09;4991095;28;20271;-53
2022/11/24 01:43:33;;;;;;;22.83;5.30;;;;;;;13.15;100.00;100155.56;4985355;28;20039;-57
2022/11/24 01:46:37;;;;;;;28.77;6.43;;;;;;;13.53;100.00;100173.16;4986118;28;20057;-55
2022/11/24 01:49:13;;;;;;;25.00;5.97;;;;;;;13.19;100.00;100170.16;4987612;28;20261;-57
2022/11/24 01:51:44;;;;;;;31.85;6.20;;;;;;;13.15;100.00;100180.53;4989717;28;20284;-53
2022/11/24 01:54:19;;;;;;;26.63;6.93;;;;;;;13.09;100.00;100176.06;4988189;28;20035;-56
2022/11/24 01:56:48;;;;;;;30.27;5.93;;;;;;;13.24;100.00;100183.69;4979283;28;20353;-56
2022/11/24 01:59:16;;;;;;;24.87;5.93;;;;;;;13.25;100.00;100196.06;4981295;28;20305;-54
2022/11/24 02:01:42;;;;;;;25.87;5.23;;;;;;;12.98;100.00;100195.63;4988584;28;20264;-55
2022/11/24 02:04:13;;;;;;;29.10;3.95;;;;;;;12.96;100.00;100198.56;4985872;28;20328;-56
2022/11/24 02:06:41;;;;;;;30.97;4.30;;;;;;;13.30;100.00;100203.47;4983039;28;20035;-54
2022/11/24 02:09:10;;;;;;;23.47;4.77;;;;;;;13.08;100.00;100201.28;4987966;28;20270;-55
2022/11/24 02:11:38;;;;;;;11.73;2.93;;;;;;;13.34;100.00;100216.19;4986272;28;20272;-54
2022/11/24 02:14:06;;;;;;;19.53;4.33;;;;;;;13.22;100.00;100212.66;4991177;28;20270;-56
2022/11/24 02:16:35;;;;;;;30.47;7.37;;;;;;;13.25;100.00;100200.63;4989690;28;20334;-58
2022/11/24 02:19:06;;;;;;;35.23;6.83;;;;;;;13.58;100.00;100210.09;4990071;28;20265;-57
2022/11/24 02:21:32;;;;;;;29.90;5.77;;;;;;;13.28;100.00;100200.19;4988487;28;20280;-56
2022/11/24 02:24:17;;;;;;;29.93;5.70;;;;;;;13.27;100.00;100210.09;4995253;28;20348;-56
2022/11/24 02:26:45;;;;;;;29.77;5.33;;;;;;;13.04;100.00;100226.94;4990590;28;20103;-56
2022/11/24 02:29:13;;;;;;;29.57;5.27;;;;;;;13.13;100.00;100216.69;4990698;28;20333;-56
2022/11/24 02:31:43;;;;;;;30.77;5.20;;;;;;;13.24;100.00;100234.72;4986732;28;20336;-57
2022/11/24 02:34:09;;;;;;;19.10;4.83;;;;;;;13.37;100.00;100225.66;4986030;28;20274;-56
2022/11/24 02:36:35;;;;;;;25.63;5.03;;;;;;;13.12;100.00;100231.16;4989979;28;20284;-56
2022/11/24 02:39:00;;;;;;;28.90;5.50;;;;;;;13.30;100.00;100223.06;4991370;28;20041;-58
2022/11/24 02:41:27;;;;;;;26.37;3.73;;;;;;;13.74;100.00;100220.16;4993590;28;20273;-54
2022/11/24 02:44:00;;;;;;;20.33;4.10;;;;;;;13.40;100.00;100219.00;4993912;28;20102;-53
2022/11/24 02:46:25;;;;;;;23.43;3.77;;;;;;;13.89;100.00;100217.03;4988454;28;20324;-56
2022/11/24 02:48:51;;;;;;;19.57;3.57;;;;;;;13.79;100.00;100216.75;4991397;28;20268;-55
2022/11/24 02:51:18;;;;;;;23.48;4.07;;;;;;;13.60;100.00;100214.16;4988722;28;20106;-58
2022/11/24 02:53:43;;;;;;;29.80;4.22;;;;;;;14.12;100.00;100209.19;4993934;28;20031;-58
2022/11/24 02:56:09;;;;;;;20.77;4.17;;;;;;;13.02;100.00;100221.78;4991043;28;20042;-56
2022/11/24 02:58:35;;;;;;;30.23;5.47;;;;;;;13.28;100.00;100217.09;5011612;28;20031;-59
2022/11/24 03:01:00;;;;;;;25.47;6.33;;;;;;;13.04;100.00;100211.66;4993312;28;20280;-58
2022/11/24 03:03:26;;;;;;;22.87;7.70;;;;;;;13.62;100.00;100220.16;4986081;28;20035;-57
2022/11/24 03:05:52;;;;;;;34.50;6.75;;;;;;;14.03;100.00;100219.47;4998642;28;20284;-59
2022/11/24 03:08:18;;;;;;;27.92;7.38;;;;;;;12.68;100.00;100229.41;4989339;28;20051;-60
2022/11/24 03:10:44;;;;;;;32.08;6.25;;;;;;;12.86;100.00;100225.09;5009669;28;20049;-57
2022/11/24 03:13:10;;;;;;;29.38;5.40;;;;;;;13.25;100.00;100232.84;4993251;28;20043;-58
2022/11/24 03:15:36;;;;;;;37.73;8.30;;;;;;;13.45;100.00;100243.34;4993033;28;20030;-57
2022/11/24 03:18:02;;;;;;;25.67;4.80;;;;;;;13.90;100.00;100232.09;4993185;28;20046;-58
2022/11/24 03:20:28;;;;;;;34.58;4.82;;;;;;;13.25;100.00;100227.47;4985504;28;20039;-58
2022/11/24 03:22:53;;;;;;;14.73;3.00;;;;;;;12.83;100.00;100241.66;4986514;28;20069;-58
2022/11/24 03:25:20;;;;;;;28.55;3.90;;;;;;;12.96;100.00;100229.91;4987405;28;20061;-58
2022/11/24 03:27:46;;;;;;;30.08;4.97;;;;;;;13.08;100.00;100227.28;4988041;28;20065;-57
2022/11/24 03:30:12;;;;;;;28.20;5.27;;;;;;;13.74;100.00;100225.53;4990531;28;20028;-58
2022/11/24 03:32:38;;;;;;;19.37;4.47;;;;;;;13.47;100.00;100238.56;4983630;28;20035;-58
2022/11/24 03:35:05;;;;;;;34.58;7.22;;;;;;;13.67;100.00;100229.38;4992787;28;20269;-57
2022/11/24 03:37:31;;;;;;;25.65;7.60;;;;;;;13.65;100.00;100236.84;4988663;28;20042;-59
2022/11/24 03:39:59;;;;;;;29.20;7.23;;;;;;;13.57;100.00;100235.31;4985515;28;20039;-57
2022/11/24 03:42:24;;;;;;;36.90;7.00;;;;;;;13.49;100.00;100233.78;4986708;28;20035;-56
2022/11/24 03:44:50;;;;;;;37.00;6.80;;;;;;;13.87;100.00;100251.38;4988247;28;20357;-57
2022/11/24 03:47:15;;;;;;;31.75;8.65;;;;;;;12.69;100.00;100247.19;4986995;28;20034;-59
2022/11/24 03:49:41;;;;;;;41.77;8.10;;;;;;;13.70;100.00;100240.47;4992739;28;20046;-57
2022/11/24 03:52:07;;;;;;;24.73;7.80;;;;;;;13.56;100.00;100249.78;4992452;28;20039;-58
2022/11/24 03:54:33;;;;;;;35.30;8.75;;;;;;;13.52;100.00;100243.25;4990013;28;20308;-58
2022/11/24 03:56:58;;;;;;;38.50;8.60;;;;;;;13.32;100.00;100255.88;4992125;28;20039;-58
2022/11/24 03:59:24;;;;;;;29.40;8.05;;;;;;;13.33;100.00;100244.06;4987961;28;20038;-57
2022/11/24 04:01:49;;;;;;;29.40;5.97;;;;;;;14.29;100.00;100263.91;4999201;28;20058;-58
2022/11/24 04:04:15;;;;;;;42.37;8.47;;;;;;;13.89;100.00;100262.72;4991734;28;20026;-57
2022/11/24 04:06:40;;;;;;;39.25;11.30;;;;;;;13.61;100.00;100257.97;4989741;28;20030;-57
2022/11/24 04:09:06;;;;;;;28.07;7.50;;;;;;;13.70;100.00;100263.84;4987523;28;20091;-58
2022/11/24 04:14:17;;;;;;;23.47;4.80;;;;;;;13.39;100.00;100260.34;4992470;28;20046;-57
2022/11/24 04:16:42;;;;;;;36.17;7.03;;;;;;;13.28;100.00;100270.81;4984172;28;20280;-58
2022/11/24 04:19:08;;;;;;;35.90;6.80;;;;;;;13.79;100.00;100258.97;4990210;28;20099;-55
2022/11/24 04:21:33;;;;;;;31.67;8.93;;;;;;;13.60;100.00;100270.59;4992053;28;20046;-58
2022/11/24 04:23:59;;;;;;;31.88;7.28;;;;;;;13.83;100.00;100282.44;4989990;28;20043;-58
2022/11/24 04:26:24;;;;;;;32.37;8.40;;;;;;;13.84;100.00;100286.78;4989401;28;20026;-59
2022/11/24 04:28:50;;;;;;;43.50;9.05;;;;;;;14.05;100.00;100281.88;4989785;28;20084;-58
2022/11/24 04:31:16;;;;;;;29.50;7.47;;;;;;;13.32;100.00;100293.47;4989749;28;20050;-59
2022/11/24 04:33:42;;;;;;;24.13;5.53;;;;;;;13.07;100.00;100300.81;4967405;28;20050;-56
2022/11/24 04:36:07;;;;;;;25.52;7.47;;;;;;;13.89;100.00;100281.53;4988860;28;20039;-58
2022/11/24 04:38:33;;;;;;;34.35;5.03;;;;;;;13.16;100.00;100304.84;4987246;28;20054;-56
2022/11/24 04:41:03;;;;;;;15.17;2.67;;;;;;;13.85;100.00;100295.66;4991945;28;20049;-58
2022/11/24 04:43:29;;;;;;;23.27;3.60;;;;;;;13.41;100.00;100291.28;4992032;28;20051;-58
2022/11/24 04:45:55;;;;;;;;;;;;;;;13.57;100.00;100299.78;4984171;28;20284;-56
2022/11/24 04:48:22;;;;;;;18.97;2.67;;;;;;;13.80;100.00;100308.97;4985017;28;19914;-57
2022/11/24 04:50:47;;;;;;;24.37;3.23;;;;;;;13.43;100.00;100299.97;4986609;28;20054;-58
2022/11/24 04:53:13;;;;;;;15.27;4.97;;;;;;;13.42;100.00;100308.22;4980492;28;20272;-58
2022/11/24 04:55:39;;;;;;;19.97;4.13;;;;;;;13.44;100.00;100301.59;4983954;28;20043;-57
2022/11/24 04:58:08;;;;;;;20.25;3.95;;;;;;;12.92;100.00;100310.09;4987098;28;20039;-57
2022/11/24 05:00:33;;;;;;;17.60;3.13;;;;;;;13.24;100.00;100323.31;4982684;28;20042;-58
2022/11/24 05:02:59;;;;;;;17.67;2.80;;;;;;;13.50;100.00;100310.63;4998896;28;20285;-58
2022/11/24 05:05:25;;;;;;;13.68;2.92;;;;;;;13.62;100.00;100313.34;4991677;28;20046;-58
2022/11/24 05:07:50;;;;;;;26.13;4.77;;;;;;;13.28;100.00;100323.72;5007716;28;20042;-58
2022/11/24 05:10:35;;;;;;;15.90;3.63;;;;;;;13.20;100.00;100336.38;4991625;28;20060;-57
2022/11/24 05:13:07;;;;;;;12.63;3.23;;;;;;;12.95;100.00;100333.78;4986365;28;20049;-55
2022/11/24 05:15:33;;;;;;;16.47;3.40;;;;;;;13.83;100.00;100341.56;4993315;28;20264;-55
2022/11/24 05:17:59;;;;;;;16.00;3.38;;;;;;;13.24;100.00;100352.03;4984313;28;20270;-58
2022/11/24 05:20:24;;;;;;;16.48;3.47;;;;;;;13.72;100.00;100347.72;4990042;28;20070;-54
2022/11/24 05:22:50;;;;;;;13.77;3.00;;;;;;;13.51;100.00;100360.63;4988963;28;20070;-59
2022/11/24 05:25:15;;;;;;;13.37;3.13;;;;;;;13.93;100.00;100362.50;4991297;28;20070;-52
2022/11/24 05:27:41;;;;;;;16.88;4.72;;;;;;;13.96;100.00;100366.63;4989026;28;20031;-57
2022/11/24 05:30:07;;;;;;;19.07;3.63;;;;;;;13.89;100.00;100374.78;4987909;28;20054;-56
2022/11/24 05:32:33;;;;;;;16.35;3.72;;;;;;;13.26;100.00;100374.09;4987910;28;20039;-57
2022/11/24 05:35:01;;;;;;;9.18;2.90;;;;;;;12.70;100.00;100382.97;4984714;28;20077;-59
2022/11/24 05:37:27;;;;;;;15.70;3.40;;;;;;;13.05;100.00;100374.34;4987780;28;20109;-58
2022/11/24 05:39:53;;;;;;;15.43;4.17;;;;;;;13.82;100.00;100393.69;4989739;28;20273;-54
2022/11/24 05:45:05;;;;;;;9.17;2.80;;;;;;;13.17;100.00;100398.59;4988793;28;20046;-55
2022/11/24 05:47:30;;;;;;;12.68;3.28;;;;;;;13.66;100.00;100405.09;4983963;28;20272;-57
2022/11/24 05:49:56;;;;;;;12.07;3.60;;;;;;;13.67;100.00;100404.84;4990599;28;20049;-58
2022/11/24 05:52:21;;;;;;;12.17;2.57;;;;;;;13.23;100.00;100409.47;4986892;28;20042;-56
2022/11/24 05:54:47;;;;;;;14.70;2.97;;;;;;;13.18;100.00;100410.97;4989529;28;20054;-57
2022/11/24 05:57:12;;;;;;;11.47;2.97;;;;;;;13.23;100.00;100410.28;4992071;28;20125;-58
2022/11/24 05:59:38;;;;;;;10.82;3.25;;;;;;;13.86;100.00;100411.00;4991529;28;20043;-56
2022/11/24 06:02:04;;;;;;;9.07;3.20;;;;;;;13.56;100.00;100417.16;4991711;28;20039;-58
2022/11/24 06:04:30;;;;;;;15.25;3.90;;;;;;;13.98;100.00;100420.97;4994516;28;20277;-56
2022/11/24 06:06:56;;;;;;;12.73;4.50;;;;;;;13.88;100.00;100427.72;4993210;28;20023;-56
2022/11/24 06:09:21;;;;;;;19.73;3.87;;;;;;;13.52;100.00;100426.72;4990293;28;20042;-57
2022/11/24 06:11:47;;;;;;;12.90;3.30;;;;;;;13.32;100.00;100432.31;5003631;28;21757;-55
2022/11/24 06:14:13;;;;;;;17.13;3.23;;;;;;;12.86;100.00;100432.56;4991336;28;20042;-58
2022/11/24 06:16:39;;;;;;;15.17;3.80;;;;;;;13.53;100.00;100441.78;4990412;28;20292;-58
2022/11/24 06:19:05;;;;;;;12.45;3.80;;;;;;;13.46;100.00;100444.56;4988974;28;20038;-57
2022/11/24 06:21:30;;;;;;;16.47;3.57;;;;;;;13.23;100.00;100453.25;4989239;28;20042;-58
2022/11/24 06:23:56;;;;;;;15.40;3.77;;;;;;;13.54;100.00;100459.56;4991949;28;20046;-56
2022/11/24 06:26:22;;;;;;;12.68;3.70;;;;;;;13.12;100.00;100462.88;4988521;28;20042;-58
2022/11/24 06:28:48;;;;;;;12.52;4.65;;;;;;;13.30;100.00;100464.75;4989996;28;20054;-55
2022/11/24 06:31:14;;;;;;;17.60;5.20;;;;;;;13.44;100.00;100470.81;4988863;28;20042;-54
2022/11/24 06:33:39;;;;;;;15.55;6.03;;;;;;;13.25;100.00;100475.34;4991589;28;20050;-55
2022/11/24 06:36:06;;;;;;;13.50;5.33;;;;;;;12.83;100.00;100484.00;4979477;28;20043;-58
2022/11/24 06:38:34;;;;;;;16.93;6.33;;;;;;;12.83;100.00;100481.31;4991013;28;20047;-56
2022/11/24 06:41:01;;;;;;;12.73;6.10;;;;;;;12.98;100.00;100486.34;4990975;28;20284;-57
2022/11/24 06:43:28;;;;;;;14.63;5.53;;;;;;;12.60;100.00;100506.03;4989515;28;20268;-53
2022/11/24 06:45:55;;;;;;;15.83;5.77;;;;;;;12.88;100.00;100504.78;4988085;28;20300;-52
2022/11/24 06:48:22;;;;;;;21.85;5.60;;;;;;;13.49;100.00;100513.13;4991198;28;20284;-59
2022/11/24 06:50:47;;;;;;;21.23;5.97;;;;;;;14.00;100.00;100513.81;4989776;28;20030;-55
2022/11/24 06:53:13;;;;;;;17.60;6.70;;;;;;;13.32;100.00;100512.88;4988853;28;20043;-59
2022/11/24 06:55:39;;;;;;;18.80;6.73;;;;;;;13.44;100.00;100521.84;4987798;28;20297;-56
2022/11/24 06:58:05;;;;;;;16.80;7.70;;;;;;;13.96;100.00;100526.06;4986979;28;20041;-56
2022/11/24 07:00:31;;;;;;;23.43;8.27;;;;;;;13.58;100.00;100529.78;4991928;28;20054;-57
2022/11/24 07:02:58;;;;;;;19.83;8.13;;;;;;;13.23;100.00;100535.66;5009257;28;20034;-56
2022/11/24 07:05:24;;;;;;;18.73;6.70;;;;;;;13.43;100.00;100536.34;4986488;28;20035;-55
2022/11/24 07:07:49;;;;;;;26.83;7.73;;;;;;;12.96;100.00;100542.09;4989891;28;20280;-56
2022/11/24 07:10:15;;;;;;;20.93;7.13;;;;;;;12.56;100.00;100553.09;4986227;28;20116;-56
2022/11/24 07:12:41;;;;;;;20.67;8.63;;;;;;;12.44;100.00;100556.44;4984969;28;20034;-58
2022/11/24 07:15:07;;;;;;;22.27;8.65;;;;;;;13.26;100.00;100557.53;4985175;28;20102;-58
2022/11/24 07:17:36;;;;;;;20.13;7.30;;;;;;;13.54;100.00;100558.97;4989884;28;20061;-58
2022/11/24 07:20:07;;;;;;;20.90;7.57;;;;;;;13.73;100.00;100567.03;4988878;28;20039;-59
2022/11/24 07:22:33;;;;;;;16.02;8.15;;;;;;;12.97;100.00;100567.91;4990033;28;20281;-57
2022/11/24 07:24:59;;;;;;;18.08;7.47;;;;;;;13.01;100.00;100571.78;4986496;28;20035;-56
2022/11/24 07:27:29;;;;;;;23.37;8.47;;;;;;;13.42;100.00;100587.56;4982230;28;20035;-57
2022/11/24 07:29:55;;;;;;;19.13;7.17;;;;;;;12.71;100.00;100593.88;4973761;28;20122;-57
2022/11/24 07:32:20;;;;;;;21.80;7.53;;;;;;;12.80;100.00;100593.63;4986171;28;20281;-56
2022/11/24 07:34:46;;;;;;;18.30;7.40;;;;;;;12.68;100.00;100596.97;4986391;28;20057;-59
2022/11/24 07:37:11;;;;;;;17.40;6.97;;;;;;;12.99;100.00;100591.81;4989198;28;20284;-59
2022/11/24 07:39:37;;;;;;;24.07;6.47;;;;;;;13.53;100.00;100605.69;4993720;28;20063;-60
2022/11/24 07:42:04;;;;;;;14.47;6.27;;;;;;;13.28;100.00;100611.03;4986447;28;20281;-59
2022/11/24 07:44:29;;;;;;;15.60;5.97;;;;;;;12.91;100.00;100615.22;4986019;28;20085;-58
2022/11/24 07:46:55;;;;;;;16.55;6.47;;;;;;;13.40;100.00;100617.31;4991814;28;20042;-59
2022/11/24 07:49:21;;;;;;;24.63;6.47;;;;;;;13.19;100.00;100623.91;4992081;28;20046;-60
2022/11/24 07:51:46;;;;;;;25.37;6.43;;;;;;;13.83;100.00;100629.16;4992432;28;20054;-59
2022/11/24 07:54:12;;;;;;;16.40;6.17;;;;;;;13.84;100.00;100638.06;4987971;28;20039;-59
2022/11/24 07:56:39;;;;;;;13.80;6.60;;;;;;;13.01;100.00;100649.63;4987781;28;20042;-59
2022/11/24 07:59:05;;;;;;;;;;;;;;;14.28;100.00;100649.56;4989295;28;20074;-59
2022/11/24 08:01:31;;;;;;;16.03;5.10;;;;;;;13.31;100.00;100649.00;4982231;28;19914;-59
2022/11/24 08:03:56;;;;;;;10.70;5.10;;;;;;;14.27;100.00;100666.75;4987990;28;20039;-57
2022/11/24 08:06:22;;;;;;;12.00;4.88;;;;;;;13.91;100.00;100658.44;4987172;28;20053;-59
2022/11/24 08:08:47;;;;;;;16.95;4.85;;;;;;;14.01;100.00;100670.53;4996833;28;20042;-57
2022/11/24 08:11:15;;;;;;;15.00;6.03;;;;;;;13.73;100.00;100674.53;4983582;28;20043;-57
2022/11/24 08:13:40;;;;;;;15.93;5.17;;;;;;;13.97;100.00;100674.72;4985162;28;20030;-59
2022/11/24 08:16:11;;;;;;;12.90;5.33;;;;;;;13.75;100.00;100670.59;4987162;28;20315;-58
2022/11/24 08:18:38;;;;;;;47.73;7.17;;;;;;;13.79;100.00;100675.53;4986886;28;20120;-58
2022/11/24 08:21:05;;;;;;;15.63;5.68;;;;;;;13.91;100.00;100687.19;4985655;28;20272;-57
2022/11/24 08:23:31;;;;;;;26.97;5.77;;;;;;;13.45;100.00;100689.25;4988339;28;20047;-57
2022/11/24 08:26:01;;;;;;;16.98;5.22;;;;;;;13.85;100.00;100693.44;4986766;28;20319;-57
2022/11/24 08:28:27;;;;;;;19.27;5.50;;;;;;;13.72;100.00;100692.50;4986998;28;20049;-59
2022/11/24 08:31:00;;;;;;;18.90;6.13;;;;;;;13.53;100.00;100697.03;4985689;28;20276;-58
2022/11/24 08:33:26;;;;;;;17.50;6.13;;;;;;;13.74;100.00;100695.84;4984674;28;20090;-58
2022/11/24 08:35:51;;;;;;;15.53;6.50;;;;;;;13.99;100.00;100702.22;4982363;28;20281;-55
2022/11/24 08:38:17;;;;;;;23.47;5.97;;;;;;;13.77;100.00;100697.25;4990011;28;20035;-58
2022/11/24 08:40:43;;;;;;;22.63;6.80;;;;;;;14.38;100.00;100702.03;4986518;28;20319;-57
2022/11/24 08:43:09;;;;;;;26.98;6.85;;;;;;;14.79;100.00;100708.59;4987118;28;20027;-56
2022/11/24 08:45:34;;;;;;;25.90;7.30;;;;;;;13.67;100.00;100705.78;4991183;28;20031;-59
2022/11/24 08:48:00;;;;;;;23.63;6.70;;;;;;;13.64;100.00;100716.19;4992916;28;20058;-58
2022/11/24 08:50:25;;;;;;;21.43;6.20;;;;;;;12.99;100.00;100715.31;4985353;28;20046;-57
2022/11/24 08:52:52;;;;;;;22.27;5.22;;;;;;;13.29;100.00;100707.50;5004544;28;20043;-59
2022/11/24 08:55:18;;;;;;;23.05;5.75;;;;;;;13.66;100.00;100714.91;4987759;28;20043;-58
2022/11/24 08:57:43;;;;;;;17.35;5.13;;;;;;;13.52;100.00;100722.25;4991004;28;20047;-59
2022/11/24 09:00:10;;;;;;;28.42;6.55;;;;;;;13.39;100.00;100725.00;4989312;28;20043;-58
2022/11/24 09:02:36;;;;;;;23.48;6.15;;;;;;;14.29;100.00;100728.38;4972779;28;20030;-59
2022/11/24 09:05:01;;;;;;;28.83;6.57;;;;;;;15.07;100.00;100731.44;4988698;28;20043;-58
2022/11/24 09:07:29;;;;;;;24.90;7.03;;;;;;;14.85;100.00;100731.13;4989480;28;20038;-58
2022/11/24 09:09:54;;;;;;;23.40;6.00;;;;;;;15.96;100.00;100745.28;4987538;28;20279;-59
2022/11/24 09:12:19;;;;;;;13.17;5.97;;;;;;;16.09;100.00;100741.53;4990775;28;20310;-60
2022/11/24 09:14:46;;;;;;;30.75;6.00;;;;;;;16.74;100.00;100748.59;4988686;28;20039;-57
2022/11/24 09:17:11;;;;;;;16.50;5.40;;;;;;;15.70;100.00;100755.41;4990725;28;20113;-60
2022/11/24 09:19:37;;;;;;;22.20;4.93;;;;;;;16.79;100.00;100758.69;4982803;28;20042;-59
2022/11/24 09:22:05;;;;;;;20.00;4.43;;;;;;;16.86;100.00;100755.84;4981771;28;20043;-58
2022/11/24 09:24:31;;;;;;;24.73;4.23;;;;;;;17.14;100.00;100767.75;4981372;28;20131;-60
2022/11/24 09:26:57;;;;;;;21.92;3.65;;;;;;;17.50;100.00;100771.09;4984132;28;20290;-60
2022/11/24 09:29:22;;;;;;;16.87;3.63;;;;;;;17.46;100.00;100769.94;4977828;28;20061;-60
2022/11/24 09:31:47;;;;;;;20.80;4.07;;;;;;;16.94;100.00;100779.78;4984288;28;20130;-60
2022/11/24 09:34:14;;;;;;;11.13;3.75;;;;;;;17.61;100.00;100777.50;4987042;28;20046;-59
2022/11/24 09:36:40;;;;;;;14.37;3.23;;;;;;;18.17;100.00;100779.50;4981956;28;20055;-59
2022/11/24 09:39:06;;;;;;;20.67;3.35;;;;;;;19.37;100.00;100798.91;4980169;28;20291;-59
2022/11/24 09:42:04;;;;;;;17.42;3.25;;;;;;;18.55;100.00;100796.00;4986361;28;20038;-58
2022/11/24 09:44:55;;;;;;;13.50;3.10;;;;;;;18.47;100.00;100792.69;4988830;28;20095;-58
2022/11/24 09:47:27;;;;;;;9.93;3.33;;;;;;;18.49;100.00;100805.94;4983515;28;20089;-59
2022/11/24 09:49:59;;;;;;;9.07;3.30;;;;;;;18.34;100.00;100801.97;4986547;28;20035;-60
2022/11/24 09:53:02;;;;;;;22.97;3.60;;;;;;;18.57;100.00;100815.53;4988980;28;20090;-59
2022/11/24 09:55:50;;;;;;;13.33;3.20;;;;;;;19.40;100.00;100824.69;4981786;28;20057;-60
2022/11/24 09:58:30;;;;;;;12.37;2.80;;;;;;;18.82;100.00;100825.91;4984184;28;20046;-61
2022/11/24 10:00:56;;;;;;;13.63;3.30;;;;;;;19.82;100.00;100817.75;4990220;28;20038;-60
2022/11/24 10:03:29;;;;;;;15.57;3.33;;;;;;;19.55;100.00;100824.84;4984443;28;20031;-59
2022/11/24 10:05:55;;;;;;;11.03;3.00;;;;;;;19.31;100.00;100824.34;4983692;28;20030;-60
2022/11/24 10:08:43;;;;;;;17.02;2.80;;;;;;;19.03;100.00;100824.28;4990255;28;20035;-59
2022/11/24 10:11:13;;;;;;;11.57;2.20;;;;;;;19.65;100.00;100834.16;4987807;28;20039;-60
2022/11/24 10:14:23;;;;;;;13.63;3.00;;;;;;;20.35;100.00;100831.50;4983672;28;20103;-60
2022/11/24 10:17:21;;;;;;;13.93;2.90;;;;;;;21.09;100.00;100858.00;4947537;28;20056;-60
2022/11/24 10:19:56;;;;;;;15.55;2.58;;;;;;;21.19;100.00;100847.16;4986143;28;20031;-59
2022/11/24 10:22:51;;;;;;;15.53;3.17;;;;;;;20.86;100.00;100849.19;4985158;28;20102;-59
2022/11/24 10:25:29;;;;;;;18.03;3.50;;;;;;;20.83;100.00;100855.97;4985736;28;20027;-59
2022/11/24 10:27:59;;;;;;;14.70;3.20;;;;;;;21.05;100.00;100860.41;4984139;28;20027;-60
2022/11/24 10:30:25;;;;;;;15.40;2.80;;;;;;;20.69;100.00;100874.63;4987118;28;20034;-60
2022/11/24 10:33:01;;;;;;;14.18;3.10;;;;;;;21.26;100.00;100865.94;4988200;28;20038;-60
2022/11/24 10:35:35;;;;;;;13.43;3.35;;;;;;;20.92;100.00;100872.59;4987512;28;20054;-60
2022/11/24 10:38:15;;;;;;;14.13;3.20;;;;;;;20.88;98.15;100891.34;4989701;28;20041;-60
2022/11/24 10:40:50;;;;;;;12.83;2.87;;;;;;;21.45;98.64;100879.84;4990075;28;20043;-60
2022/11/24 10:43:16;;;;;;;12.07;3.00;;;;;;;20.45;97.50;100885.88;4986271;28;20031;-60
2022/11/24 10:45:42;;;;;;;12.20;2.60;;;;;;;19.89;100.00;100873.47;4991818;28;20046;-60
2022/11/24 10:48:18;;;;;;;19.58;3.97;;;;;;;20.54;99.58;100886.22;4989781;28;20047;-60
2022/11/24 10:50:44;;;;;;;18.97;3.37;;;;;;;20.87;98.62;100897.84;4990966;28;20056;-60
2022/11/24 10:53:21;;;;;;;12.18;3.17;;;;;;;21.22;96.02;100895.59;4991557;28;20035;-59
2022/11/24 10:55:53;;;;;;;17.70;3.17;;;;;;;20.53;97.95;100889.19;4985974;28;20059;-60
2022/11/24 10:58:31;;;;;;;16.87;3.37;;;;;;;21.33;96.63;100893.69;4991670;28;20058;-60
2022/11/24 11:01:13;;;;;;;13.47;3.50;;;;;;;20.42;95.89;100891.84;5000281;28;20042;-60
2022/11/24 11:03:57;;;;;;;10.93;3.20;;;;;;;20.88;94.12;100893.22;4987665;28;20035;-60
2022/11/24 11:06:25;;;;;;;15.63;3.33;;;;;;;22.03;88.66;100896.06;4988910;28;20033;-60
2022/11/24 11:09:06;;;;;;;13.57;2.80;;;;;;;21.85;84.70;100894.66;5004976;28;20058;-60
2022/11/24 11:11:38;;;;;;;21.23;3.10;;;;;;;23.16;81.08;100904.34;5001984;28;20139;-61
2022/11/24 11:14:06;;;;;;;12.93;2.70;;;;;;;21.81;84.99;100890.84;4988917;28;20035;-60
2022/11/24 11:16:33;;;;;;;14.17;3.37;;;;;;;22.75;81.11;100886.22;4992387;28;20069;-60
2022/11/24 11:19:04;;;;;;;23.70;3.30;;;;;;;22.06;81.89;100900.13;4989194;28;20038;-60